Thompson, ND (58278)

11:33 AM CDT on September 17, 2014 (GMT -0500)
KNDGRAND8 | Change Station
CLOSE
Current Station
Personal Weather Station
Location: Grand Forks, ND
Elevation: 830 ft
Nearby Weather Stations

Elev 830 ft 47.94 °N, 97.06 °W | Updated 2 seconds ago

Clear
Clear
59.1 °F
Feels Like 59.1 °F
N
9.3
Wind Variable Wind from SW
Gusts 12.0 mph

Today
High -- | Low -- °F
--% Chance of Precip.
Yesterday
High -- | Low -- °F
Precip. -- in
7:08 AM 7:36 PM
Waning Crescent, 35% visible
Pressure 29.99 in
Visibility 10.0 miles
Clouds Few 1000 ft
Dew Point 50 °F
Humidity 72%
Rainfall 0.00 in
Snow Depth Not available.
UV 4 out of 12
Pollen 3.30 out of 12
Air Quality Not available.
Flu Activity Not available.
METAR KGFK 171553Z 01012KT 10SM FEW010 15/10 A2998 RMK AO2 SLP156 T01500100

More Conditions Fewer Conditions

Pressure 29.99 in
Visibility 10.0 miles
Clouds Few 1000 ft
Dew Point 50 °F
Humidity 72%
Rainfall 0.00 in
Snow Depth Not available.
UV 4 out of 12
Pollen 3.30 out of 12
Air Quality Not available.
Flu Activity Not available.
METAR KGFK 171553Z 01012KT 10SM FEW010 15/10 A2998 RMK AO2 SLP156 T01500100

More Conditions Fewer Conditions

10-Day Weather Forecast

Almanac

Astronomy

Sep. 17, 2014 Rise Set
Actual Time 7:08 AM CDT 7:36 PM CDT
Civil Twilight 6:37 AM CDT 8:07 PM CDT
Nautical Twilight 6:00 AM CDT 8:44 PM CDT
Astronomical Twilight 5:22 AM CDT 9:22 PM CDT
Moon 12:50 AM CDT 4:04 PM CDT
Length of Visible Light 13h 30m
Length of Day
12h 28m
Tomorrow will be 3m 25s shorter.
Waning Crescent, 35% of the Moon is Illuminated
Today
Waning Crescent
Sep 24
New
Oct 1
First Quarter
Oct 8
Full
Oct 15
Last Quarter

Today's Extremes

State Highs State Lows

Community

WunderPhotos

Upload Photos

1,754,100 photos uploaded!

Nearby

Snow Depth

Station Depth Elevation
No new snow has been reported.

Earthquake Activity

City Distance Mag. Time & Date
No recent earthquake activity has been reported nearby.
Minimum magnitude displayed is 2.5.

Coastal Water Temperatures

Place Temperature
No Stations Reporting

Nearby Weather Stations